Flight Track Log - Related Links

Times and Time Zones

All times are in EDT time to prevent confusion due to time zone crossing. See the SWA3228 flight status page for this flight to view local times or setup timezone preferences in your user account.

Time Position Orientation Groundspeed Altitude Reporting Facility
EDT Latitude Longitude Course Direction KTS MPH feet Rate Location/Type
Tue 08:18:18 AM 28.4333 -81.3000 348° North 174 200 400  Level Orlando TRACON
Tue 08:19:18 AM 28.5000 -81.3167 348° North 228 262 2,500 2,429 Climbing Orlando TRACON
Tue 08:20:24 AM 28.5667 -81.3333 348° North 272 313 5,500 2,762 Climbing Orlando TRACON
Tue 08:21:24 AM 28.6333 -81.3667 336° Northwest 276 318 8,300 2,195 Climbing Orlando TRACON
Tue 08:23:08 AM 28.6269 -81.5325 268° West 302 348 11,500 2,122 Climbing Jacksonville Center
Tue 08:24:08 AM 28.6153 -81.6344 263° West 341 392 14,100 2,250 Climbing Jacksonville Center
Tue 08:25:08 AM 28.6039 -81.7411 263° West 352 405 16,000 1,900 Climbing Jacksonville Center
Tue 08:26:08 AM 28.5881 -81.8569 261° West 352 405 17,900 1,750 Climbing Jacksonville Center
Tue 08:27:08 AM 28.5744 -81.9683 262° West 357 411 19,500 1,550 Climbing Jacksonville Center
Tue 08:28:08 AM 28.5794 -82.0983 273° West 363 418 21,000 1,450 Climbing Jacksonville Center
Tue 08:29:08 AM 28.5864 -82.2164 274° West 368 423 22,400 1,300 Climbing Jacksonville Center
Tue 08:30:08 AM 28.5911 -82.3392 273° West 379 436 23,600 1,100 Climbing Jacksonville Center
Tue 08:31:08 AM 28.6311 -82.4456 293° West 365 420 24,600 1,000 Climbing Jacksonville Center
Tue 08:32:08 AM 28.7253 -82.5139 328° Northwest 368 423 25,600 1,050 Climbing Jacksonville Center
Tue 08:33:08 AM 28.8133 -82.5917 322° Northwest 373 429 26,700 900 Climbing Jacksonville Center
Tue 08:34:08 AM 28.9053 -82.6650 325° Northwest 388 447 27,400 800 Climbing Jacksonville Center
Tue 08:35:08 AM 28.9847 -82.7383 321° Northwest 400 460 28,300 1,150 Climbing Jacksonville Center
Tue 08:36:08 AM 29.0722 -82.8094 325° Northwest 405 466 29,700 1,250 Climbing Jacksonville Center
Tue 08:37:08 AM 29.1622 -82.8856 324° Northwest 399 459 30,800 950 Climbing Jacksonville Center
Tue 08:38:08 AM 29.2478 -82.9569 324° Northwest 394 453 31,600 800 Climbing Jacksonville Center
Tue 08:39:08 AM 29.3375 -83.0331 324° Northwest 388 447 32,400 750 Climbing Jacksonville Center
Tue 08:40:08 AM 29.4228 -83.1025 325° Northwest 388 447 33,100 800 Climbing Jacksonville Center
Tue 08:41:08 AM 29.5125 -83.1767 324° Northwest 388 447 34,000 450 Climbing Jacksonville Center
Tue 08:42:08 AM 29.5958 -83.2508 322° Northwest 388 447 34,000  Level Jacksonville Center
Tue 08:43:08 AM 29.6853 -83.3228 325° Northwest 388 447 34,000 -50 Level Jacksonville Center
Tue 08:44:08 AM 29.7750 -83.3997 323° Northwest 393 452 33,900  Descending Jacksonville Center
Tue 08:45:08 AM 29.8561 -83.4697 323° Northwest 384 442 34,000 50 Climbing Jacksonville Center
Tue 08:46:08 AM 29.9453 -83.5469 323° Northwest 384 442 34,000  Level Jacksonville Center
Tue 08:47:08 AM 30.0369 -83.6219 325° Northwest 384 442 34,000  Level Jacksonville Center
Tue 08:48:08 AM 30.1178 -83.6922 323° Northwest 384 442 34,000  Level Jacksonville Center
Tue 08:49:08 AM 30.1989 -83.7675 321° Northwest 384 442 34,000  Level Jacksonville Center
Tue 08:50:08 AM 30.2819 -83.8356 325° Northwest 373 429 34,000  Level Jacksonville Center
Tue 08:51:08 AM 30.3647 -83.9036 325° Northwest 367 422 34,000  Level Jacksonville Center
Tue 08:52:08 AM 30.4456 -83.9769 322° Northwest 367 422 34,000  Level Jacksonville Center
Tue 08:53:08 AM 30.5286 -84.0503 323° Northwest 367 422 34,000  Level Jacksonville Center
Tue 08:54:08 AM 30.6133 -84.1211 324° Northwest 367 422 34,000  Level Jacksonville Center
Tue 08:55:08 AM 30.7003 -84.1997 322° Northwest 373 429 34,000  Level Jacksonville Center
Tue 08:56:08 AM 30.7872 -84.2758 323° Northwest 386 444 34,000  Level Jacksonville Center
Tue 08:57:08 AM 30.8761 -84.3522 324° Northwest 391 450 34,000 -300 Level Jacksonville Center
Tue 08:58:08 AM 30.9631 -84.4261 324° Northwest 391 450 33,400 -650 Descending Jacksonville Center
Tue 08:59:08 AM 31.0497 -84.5050 322° Northwest 391 450 32,700 -700 Descending Jacksonville Center
Tue 09:00:08 AM 31.1364 -84.5819 323° Northwest 391 450 32,000 -350 Descending Jacksonville Center
Tue 09:01:08 AM 31.2208 -84.6586 322° Northwest 391 450 32,000  Level Jacksonville Center
Tue 09:02:08 AM 31.3117 -84.7358 324° Northwest 391 450 32,000  Level Jacksonville Center
Tue 09:03:53 AM 31.4539 -84.8664 322° Northwest 384 442 32,000  Level Atlanta Center
Tue 09:04:53 AM 31.5431 -84.9428 324° Northwest 389 448 32,000  Level Atlanta Center
Tue 09:05:53 AM 31.6322 -85.0219 323° Northwest 394 453 32,000  Level Atlanta Center
Tue 09:06:53 AM 31.7253 -85.1033 323° Northwest 394 453 32,000  Level Atlanta Center
Tue 09:07:53 AM 31.8061 -85.1778 322° Northwest 394 453 32,000  Level Atlanta Center
Tue 09:08:53 AM 31.8950 -85.2569 323° Northwest 388 447 32,000  Level Atlanta Center
Tue 09:09:53 AM 31.9839 -85.3392 322° Northwest 393 452 32,000  Level Atlanta Center
Tue 09:10:53 AM 32.0728 -85.4164 324° Northwest 393 452 32,000 -250 Level Atlanta Center
Tue 09:11:53 AM 32.1639 -85.4964 323° Northwest 393 452 31,500 -950 Descending Atlanta Center
Tue 09:12:53 AM 32.2525 -85.5786 322° Northwest 399 459 30,100 -1,450 Descending Atlanta Center
Tue 09:13:53 AM 32.3392 -85.6589 322° Northwest 399 459 28,600 -1,500 Descending Atlanta Center
Tue 09:14:53 AM 32.4300 -85.7417 322° Northwest 404 465 27,100 -1,700 Descending Atlanta Center
Tue 09:15:53 AM 32.5206 -85.8225 323° Northwest 404 465 25,200 -2,000 Descending Atlanta Center
Tue 09:16:53 AM 32.6153 -85.9106 322° Northwest 421 484 23,100 -1,800 Descending Atlanta Center
Tue 09:17:53 AM 32.7058 -85.9964 321° Northwest 421 484 21,600 -1,400 Descending Atlanta Center
Tue 09:18:53 AM 32.8044 -86.0875 322° Northwest 415 478 20,300 -1,953 Descending Atlanta Center
Tue 09:20:42 AM 32.9544 -86.2347 321° Northwest 378 435 16,100 -2,544 Descending Atlanta Center
Tue 09:21:31 AM 33.0181 -86.2908 324° Northwest 366 421 13,600 -3,042 Descending Atlanta Center
Tue 09:21:53 AM 33.0511 -86.3164 327° Northwest 373 429 12,500 -2,600 Descending Atlanta Center
Tue 09:22:31 AM 33.0939 -86.3647 317° Northwest 351 404 11,000 -1,600 Descending Atlanta Center
Tue 09:22:53 AM 33.1289 -86.3878 331° Northwest 361 415 10,900 -787 Descending Atlanta Center
Tue 09:23:32 AM 33.1675 -86.4483 307° West 322 371 10,200 -1,000 Descending Atlanta Center
Tue 09:23:53 AM 33.1858 -86.4664 321° Northwest 335 386 9,900 -1,279 Descending Atlanta Center
Tue 09:24:33 AM 33.2161 -86.5242 302° West 277 319 8,900 -1,800 Descending Atlanta Center
Tue 09:24:53 AM 33.2325 -86.5422 317° Northwest 310 357 8,100 -2,000 Descending Atlanta Center
Tue 09:25:21 AM 33.2567 -86.5825 306° West 277 319 7,300 -1,700 Descending Atlanta Center
Tue 09:25:53 AM 33.2831 -86.6156 314° West 296 341 6,400 -1,701 Descending Atlanta Center
Tue 09:26:28 AM 33.3050 -86.6686 296° West 276 318 5,400 -1,400 Descending Atlanta Center
Tue 09:26:53 AM 33.3150 -86.6861 304° West 279 321 5,000 -492 Descending Atlanta Center
Tue 09:27:29 AM 33.3344 -86.7464 291° West 242 278 4,900  Descending Atlanta Center
Tue 09:27:53 AM 33.3447 -86.7592 314° West 267 307 5,000 91 Climbing Atlanta Center
Tue 09:28:35 AM 33.3683 -86.8272 293° West 261 300 5,000 -100 Level Atlanta Center
Tue 09:28:53 AM 33.3764 -86.8372 314° West 259 298 4,900 -1,714 Descending Atlanta Center
Tue 09:29:24 AM 33.3961 -86.8903 294° West 282 325 3,600 -2,000 Descending Atlanta Center
Tue 09:29:53 AM 33.4142 -86.9183 308° West 265 305 2,900 -700 Descending Atlanta Center
Tue 09:30:24 AM 33.4531 -86.9469 328° Northwest 279 321 2,900 -522 Level Atlanta Center
Tue 09:31:25 AM 33.5025 -86.8861 46° Northeast 230 265 2,100 -590 Descending Atlanta Center
Tue 09:32:26 AM 33.5225 -86.8297 67° East 182 209 1,700 -567 Descending Atlanta Center
Tue 09:33:32 AM 33.5444 -86.7881 58° Northeast 118 136 900 -727 Descending Atlanta Center
Tue 09:35:00 AM 33.5500 -86.7500 140° Southeast  Level FlightAware Approximate
Tue 09:42:00 AM 33.5639 -86.7523 140° Southeast  Level Estimated

Login

Don't have an account? Register now (free) for customized features, flight alerts, and more!